AirNav   Air Wisconsin pilot careers
 
 1010 users online  

7C5 Sig Field Airport
Montezuma, Iowa, USA

GOING TO MONTEZUMA?


FAA INFORMATION EFFECTIVE 26 APRIL 2018

Location

FAA Identifier: 7C5
Lat/Long: 41-32-53.8400N / 092-32-04.5000W
41-32.897333N / 092-32.075000W
41.5482889 / -92.5345833
(estimated)
Elevation: 929 ft. / 283 m (estimated)
Variation: 03E (1990)
From city: 3 miles S of MONTEZUMA, IA
Time zone: UTC -5 (UTC -6 during Standard Time)
Zip code: 50171

Airport Operations

Airport use: Open to the public
Activation date: 05/1972
Control tower: no
ARTCC: CHICAGO CENTER
FSS: FORT DODGE FLIGHT SERVICE STATION
NOTAMs facility: FOD (NOTAM-D service available)
Attendance: UNATNDD
Wind indicator: yes
Segmented circle: no

Airport Communications

CTAF: 122.9
WX AWOS-3 at GGI (13 nm NW): 120.725 (641-236-9720)
WX AWOS-3 at OOA (19 nm S): 118.625 (641-933-4312)

Nearby radio navigation aids

VOR radial/distance  VOR name  Freq  Var
TNUr116/29.4NEWTON VOR/DME112.5003E
OTMr337/32.5OTTUMWA VOR/DME111.6006E
JWJr153/37.7ELMWOOD VOR/DME109.4001E
CIDr234/39.2CEDAR RAPIDS VOR/DME114.1005E

 
NDB name  Hdg/Dist  Freq  Var  ID
PELLA063/20.425702EPEA .--. . .-

Airport Services

Airframe service: NONE
Powerplant service: NONE
Bottled oxygen: NONE
Bulk oxygen: NONE

Runway Information

Runway 18/36

Dimensions: 2600 x 105 ft. / 792 x 32 m
Surface: turf, in fair condition
Runway edge markings: 18/36 RY ENDS & SIDES MARKED WITH YELLOW CONES. DSPLCD THLD MARKED WITH YELLOWCONES - 2 CONES PLACED OUTBOARD OF RY EDGES & 400 FT FROM AER 18.
RUNWAY 18  RUNWAY 36
Traffic pattern: leftleft
Displaced threshold: 400 ft.no
Obstructions: 28 ft. pole, 175 ft. from runway, 80 ft. left of centerline, 6:1 slope to clear
OBSTN CLNC SLOPE 20:1 TO DSPLCD THLD.
none

Airport Ownership and Management from official FAA records

Ownership: Privately-owned
Owner: HAZEL SIG-HESTER
5117 HWY 63 SOUTH
MONTEZUMA, IA 50171-0639
Phone 641-623-5179
Manager: HAZEL SIG-HESTER
5117 HWY 63 SOUTH
MONTEZUMA, IA 50171-0639
Phone 641-623-5179

Airport Operational Statistics

Aircraft based on the field: 3
Single engine airplanes: 3
    
Aircraft operations: avg 42/month *
50% transient general aviation
50% local general aviation
* for 12-month period ending 20 July 2016

Instrument Procedures

There are no published instrument procedures at 7C5.

Some nearby airports with instrument procedures:

KGGI - Grinnell Regional Airport (13 nm NW)
KOOA - Oskaloosa Municipal Airport (19 nm S)
KPEA - Pella Municipal Airport (20 nm SW)
KTZT - Belle Plaine Municipal Airport (23 nm NE)
KTNU - Newton Municipal Airport-Earl Johnson Field (23 nm W)
 
Loc | Ops | Rwys | IFR | FBO | Links
Com | Nav | Svcs | Stats | Notes

AirNav Hotels Sweepstakes
 
Area around 7C5 (Sig Field Airport)
 
Road maps at: MapQuest Bing Google
 
Aerial photo
No photo
 
Sectional chart

 
Airport distance calculator
Flying to Sig Field Airport? Find the distance to fly.

From to 7C5

Sunrise and sunset
Times for 20-May-2018
 Local
(UTC-5)
 Zulu
(UTC)
Morning civil twilight05:1510:15
Sunrise05:4710:47
Sunset20:2601:26
Evening civil twilight20:5801:58

Current date and time
Zulu (UTC)  20-May-2018 19:53:27
Local (UTC-5)  20-May-2018 14:53:27
 
METAR
KGGI 
13nm NW 
201935Z AUTO 06010KT 7SM OVC013 18/15 A3012 RMK AO2 T01810145
KOOA 
19nm S 
201935Z AUTO 04007KT 5SM HZ SCT012 SCT020 SCT028 21/18 A3007 RMK AO2 T02120179
KPEA 
21nm SW 
201935Z AUTO 03003KT 7SM SCT016 BKN024 21/16 A3009 RMK AO2 T02080158
KTNU 
23nm W 
201935Z AUTO 03007KT 9SM OVC009 17/15 A3010 RMK AO2
TAF
KOTM 
27nm S 
201722Z 2018/2118 03006KT P6SM OVC010 FM210000 05007KT P6SM VCTS OVC017CB FM210400 05007KT P6SM VCSH OVC012 FM211100 06005KT P6SM OVC004 FM211700 34004KT P6SM BKN020
NOTAMs
Click for the latest NOTAMs
NOTAMs are issued by the DoD/FAA and will open in a separate window not controlled by AirNav.

 

 
 

Would you like to see your business listed on this page?

 If your business provides an interesting product or service to pilots, flight crews, aircraft, or users of the Sig Field Airport, you should consider listing it here.  To start the listing process, click on the button below
 
Add a business
 

Other Pages about Sig Field Airport

Page from the Iowa Airport Directory
 
Update a link
 
Copyright © AirNav, LLC. All rights reserved. Privacy Policy  Contact